LOWSLIEE

Guest
Details From LOWS - Salzburg Maxglan
To LIEE - Cagliari Elmas
Flight Number -
Tags Generated
Created
Modified
Stats Distance 541 nm / 1,002 km
Max Altitude 0 ft / 0 m
Waypoints 4
Social Downloads 0
Likes 0
Share VATSIM

Download

Looking for another format? Having issues loading an existing format? Contact us
Advertisement - Login to hide

Notes

Generated

Route

LOWS TOSCO CAG01 LIEE

ID Type Via Altitude Latitude Longitude Leg Dist Tot Dist Heading (true) Name
O LOWS APT - 0 ft / 0 m 47.80472˚ 12.99717˚ - 0 nm - -
TOSCO FIX - 0 ft / 0 m 43.59274˚ 10.90493˚ 267 nm 267 nm 200° / 198° -
CAG01 FIX - 0 ft / 0 m 39.26216˚ 9.04088˚ 273 nm 540 nm 199° / 197° -
O LIEE APT - 0 ft / 0 m 39.26081˚ 9.04347˚ 0 nm 541 nm 124° / 124° -

Altitude Profile

Advertisement - Login to hide

Weather


0- 5 10 15 20 25 30 35+ Temperature / ° C

Clouds and Precipitation
Forecast for 2018-05-25 18:00 UTC. Updated 2 hours ago

Ground ~20,000 ft ~40,000 ft Winds

LOWS

Details ICAO LOWS (SZG)
Name Salzburg Maxglan
Region Austria
Timezone Europe/Vienna (UTC+2.0)
Stats Elevation 1,411 ft / 430 m (AMSL)
Location 47.793333° 13.004333°
Runways 1
Magnetic Variation 3.480° E

METAR

LOWS 251920Z 16006KT 120V190 9999 FEW130 16/14 Q1020 NOSIG

Decode

TAF

TAF LOWS 251715Z 2518/2618 15006KT 9999 FEW060 SCT130 TX26/2615Z TN12/2603Z BECMG 2519/2521 CAVOK BECMG 2607/2609 36005KT 9999 FEW060

Decode

Departure Runways

ID Width Length Bearing (true) Bearing (mag) Surface Threshold Offset Overrun Length
16 148 ft / 45 m 9,024 ft / 2,751 m 157.08° 153.60° Concrete 656 ft / 200 m 0 ft / 0 m
34 148 ft / 45 m 9,024 ft / 2,751 m 337.09° 333.61° Concrete 787 ft / 240 m 0 ft / 0 m

LIEE

Details ICAO LIEE (CAG)
Name Cagliari Elmas
Region Italy
Timezone Europe/Rome (UTC+2.0)
Stats Elevation 13 ft / 4 m (AMSL)
Location 39.251475° 9.054291°
Runways 1
Magnetic Variation 2.343° E

METAR

LIEE 251920Z 17006KT CAVOK 20/17 Q1016

Decode

TAF

TAF LIEE 251700Z 2518/2618 VRB05KT CAVOK TEMPO 2601/2605 3000 BR BECMG 2608/2610 16012KT

Decode

Destination Runways

ID Width Length Bearing (true) Bearing (mag) Surface Threshold Offset Overrun Length
14 148 ft / 45 m 9,157 ft / 2,791 m 138.08° 135.74° Asphalt 0 ft / 0 m 187 ft / 57 m
32 148 ft / 45 m 9,157 ft / 2,791 m 318.09° 315.75° Asphalt 0 ft / 0 m 0 ft / 0 m

Approach Navaids

Runway Type Ident Frequency Range Bearing (true) Bearing (mag) Slope Elevation
32 Localiser IEL 109.50 MHz 18 nm / 33 km 318.12° 315.77° - 7 ft / 2 m (AMSL)
32 Glidescope IEL 109.50 MHz 10 nm / 19 km 318.08° 315.74° 3.00° 9 ft / 3 m (AMSL)
32 DME IEL 109.50 MHz 18 nm / 33 km - - - 26 ft / 8 m (AMSL)

Popular Alternatives